createdAt,value
2019-01-13T00:00:11.777Z,7.90
2019-01-13T00:01:08.943Z,7.88
2019-01-13T00:02:08.932Z,7.88
2019-01-13T00:03:08.918Z,7.91
2019-01-13T00:04:08.936Z,7.90
2019-01-13T00:05:08.895Z,8.01
2019-01-13T00:06:08.885Z,7.91
2019-01-13T00:07:08.886Z,7.95
2019-01-13T00:08:08.861Z,7.94
2019-01-13T00:09:08.875Z,7.94
2019-01-13T00:10:08.842Z,7.88
2019-01-13T00:11:08.831Z,7.94
2019-01-13T00:12:09.822Z,7.91
2019-01-13T00:13:08.812Z,7.87
2019-01-13T00:14:08.805Z,7.91
2019-01-13T00:15:08.806Z,7.94
2019-01-13T00:16:08.783Z,7.91
2019-01-13T00:17:08.781Z,7.91
2019-01-13T00:18:08.751Z,7.94
2019-01-13T00:19:08.745Z,7.93
2019-01-13T00:20:08.757Z,7.91
2019-01-13T00:21:08.742Z,7.88
2019-01-13T00:22:08.730Z,7.90
2019-01-13T00:23:08.701Z,7.98
2019-01-13T00:24:08.687Z,7.93
2019-01-13T00:25:08.674Z,8.09
2019-01-13T00:26:08.669Z,8.01
2019-01-13T00:27:08.682Z,8.01
2019-01-13T00:28:08.650Z,7.90
2019-01-13T00:29:08.640Z,7.93
2019-01-13T00:30:08.621Z,7.93
2019-01-13T00:31:09.630Z,7.93
2019-01-13T00:32:08.618Z,7.97
2019-01-13T00:33:08.586Z,7.93
2019-01-13T00:34:08.582Z,7.93
2019-01-13T00:35:08.578Z,7.88
2019-01-13T00:36:08.571Z,7.97
2019-01-13T00:37:10.132Z,7.97
2019-01-13T00:38:08.550Z,7.93
2019-01-13T00:39:08.525Z,7.97
2019-01-13T00:40:08.561Z,7.93
2019-01-13T00:41:08.509Z,7.93
2019-01-13T00:42:08.491Z,7.97
2019-01-13T00:43:08.483Z,7.93
2019-01-13T00:44:08.475Z,7.93
2019-01-13T00:45:08.459Z,7.97
2019-01-13T00:46:08.463Z,7.94
2019-01-13T00:47:08.438Z,7.94
2019-01-13T00:48:08.429Z,7.95
2019-01-13T00:49:08.428Z,7.94
2019-01-13T00:50:10.125Z,7.90
2019-01-13T00:51:08.411Z,7.91
2019-01-13T00:52:08.384Z,7.95
2019-01-13T00:53:08.374Z,7.82
2019-01-13T00:54:08.377Z,7.73
2019-01-13T00:55:08.350Z,7.85
2019-01-13T00:56:08.349Z,7.75
2019-01-13T00:57:08.348Z,7.72
2019-01-13T00:58:08.314Z,7.73
2019-01-13T00:59:08.319Z,7.75
2019-01-13T01:00:08.299Z,7.76
2019-01-13T01:01:08.295Z,7.79
2019-01-13T01:02:08.281Z,7.70
2019-01-13T01:03:08.277Z,7.70
2019-01-13T01:04:08.270Z,7.75
2019-01-13T01:05:08.251Z,7.69
2019-01-13T01:06:08.235Z,7.67
2019-01-13T01:07:08.239Z,7.66
2019-01-13T01:08:08.215Z,7.57
2019-01-13T01:09:10.119Z,7.56
2019-01-13T01:10:08.188Z,7.56
2019-01-13T01:11:08.185Z,7.57
2019-01-13T01:12:08.186Z,7.58
2019-01-13T01:13:08.156Z,7.69
2019-01-13T01:14:09.158Z,7.60
2019-01-13T01:15:08.131Z,7.57
2019-01-13T01:16:08.124Z,7.58
2019-01-13T01:17:09.143Z,7.60
2019-01-13T01:18:08.104Z,7.61
2019-01-13T01:19:08.095Z,7.60
2019-01-13T01:20:08.087Z,7.56
2019-01-13T01:21:08.073Z,7.58
2019-01-13T01:22:08.079Z,7.56
2019-01-13T01:23:08.053Z,7.54
2019-01-13T01:24:08.047Z,7.56
2019-01-13T01:25:08.037Z,7.54
2019-01-13T01:26:08.032Z,7.54
2019-01-13T01:27:08.011Z,7.56
2019-01-13T01:28:08.011Z,7.56
2019-01-13T01:29:07.990Z,7.39
2019-01-13T01:30:07.969Z,7.43
2019-01-13T01:31:07.953Z,7.45
2019-01-13T01:32:07.967Z,7.40
2019-01-13T01:33:07.951Z,7.45
2019-01-13T01:34:07.932Z,7.43
2019-01-13T01:35:07.957Z,7.56
2019-01-13T01:36:07.913Z,7.58
2019-01-13T01:37:07.899Z,7.43
2019-01-13T01:38:07.908Z,7.45
2019-01-13T01:39:07.879Z,7.42
2019-01-13T01:40:07.864Z,7.38
2019-01-13T01:41:07.859Z,7.45
2019-01-13T01:42:07.840Z,7.43
2019-01-13T01:43:07.839Z,7.39
2019-01-13T01:44:07.815Z,7.57
2019-01-13T01:45:07.834Z,7.45
2019-01-13T01:46:07.795Z,7.47
2019-01-13T01:47:07.787Z,7.39
2019-01-13T01:48:07.776Z,7.53
2019-01-13T01:49:07.784Z,7.40
2019-01-13T01:50:07.759Z,7.47
2019-01-13T01:51:07.766Z,7.51
2019-01-13T01:52:07.732Z,7.42
2019-01-13T01:53:07.724Z,7.42
2019-01-13T01:54:07.705Z,7.45
2019-01-13T01:55:07.697Z,7.40
2019-01-13T01:56:07.698Z,7.45
2019-01-13T01:57:07.681Z,7.45
2019-01-13T01:58:07.671Z,7.40
2019-01-13T01:59:07.648Z,7.42
2019-01-13T02:00:07.656Z,7.40
2019-01-13T02:01:07.641Z,7.53
2019-01-13T02:02:07.648Z,7.43
2019-01-13T02:03:07.628Z,7.45
2019-01-13T02:04:07.624Z,7.45
2019-01-13T02:05:08.244Z,7.45
2019-01-13T02:06:07.638Z,7.58
2019-01-13T02:07:07.571Z,7.43
2019-01-13T02:08:07.621Z,7.40
2019-01-13T02:09:07.549Z,7.40
2019-01-13T02:10:07.537Z,7.57
2019-01-13T02:11:07.533Z,7.58
2019-01-13T02:12:07.515Z,7.57
2019-01-13T02:13:07.512Z,7.51
2019-01-13T02:14:07.498Z,7.42
2019-01-13T02:15:07.483Z,7.47
2019-01-13T02:16:07.466Z,7.43
2019-01-13T02:17:07.465Z,7.48
2019-01-13T02:18:08.067Z,7.43
2019-01-13T02:19:08.009Z,7.43
2019-01-13T02:20:07.502Z,7.40
2019-01-13T02:21:07.779Z,7.45
2019-01-13T02:22:07.791Z,7.39
2019-01-13T02:23:14.876Z,7.45
2019-01-13T02:24:08.152Z,7.40
2019-01-13T02:25:14.848Z,7.40
2019-01-13T02:26:15.293Z,7.39
2019-01-13T02:27:14.795Z,7.38
2019-01-13T02:28:15.081Z,7.25
2019-01-13T02:29:08.332Z,7.33
2019-01-13T02:30:07.325Z,7.36
2019-01-13T02:31:08.300Z,7.39
2019-01-13T02:32:07.316Z,7.42
2019-01-13T02:33:07.285Z,7.43
2019-01-13T02:34:07.294Z,7.39
2019-01-13T02:35:07.309Z,7.38
2019-01-13T02:36:07.269Z,7.45
2019-01-13T02:37:07.247Z,7.45
2019-01-13T02:38:07.234Z,7.58
2019-01-13T02:39:08.821Z,7.67
2019-01-13T02:40:07.808Z,7.67
2019-01-13T02:41:07.806Z,7.83
2019-01-13T02:42:07.188Z,7.75
2019-01-13T02:43:07.175Z,7.82
2019-01-13T02:44:07.169Z,7.93
2019-01-13T02:45:07.151Z,8.00
2019-01-13T02:46:07.139Z,7.93
2019-01-13T02:47:07.146Z,7.97
2019-01-13T02:48:07.130Z,8.08
2019-01-13T02:49:07.112Z,8.08
2019-01-13T02:50:07.099Z,8.05
2019-01-13T02:51:07.087Z,8.15
2019-01-13T02:52:07.090Z,8.19
2019-01-13T02:53:07.064Z,8.18
2019-01-13T02:54:07.056Z,8.23
2019-01-13T02:55:07.048Z,8.33
2019-01-13T02:56:07.037Z,8.30
2019-01-13T02:57:07.050Z,8.33
2019-01-13T02:58:07.008Z,8.41
2019-01-13T02:59:07.006Z,8.55
2019-01-13T03:00:06.984Z,8.52
2019-01-13T03:01:06.981Z,8.55
2019-01-13T03:02:06.968Z,8.49
2019-01-13T03:03:06.975Z,8.48
2019-01-13T03:04:06.949Z,8.34
2019-01-13T03:05:06.931Z,8.30
2019-01-13T03:06:06.922Z,8.24
2019-01-13T03:07:06.916Z,8.15
2019-01-13T03:08:06.906Z,8.09
2019-01-13T03:09:06.907Z,8.03
2019-01-13T03:10:06.889Z,7.98
2019-01-13T03:11:07.674Z,7.97
2019-01-13T03:12:06.864Z,7.98
2019-01-13T03:13:06.855Z,8.00
2019-01-13T03:14:06.859Z,7.91
2019-01-13T03:15:06.823Z,7.95
2019-01-13T03:16:07.828Z,7.94
2019-01-13T03:17:07.314Z,7.94
2019-01-13T03:18:06.794Z,7.90
2019-01-13T03:19:06.806Z,7.90
2019-01-13T03:20:06.772Z,7.91
2019-01-13T03:21:06.763Z,7.93
2019-01-13T03:22:06.757Z,7.83
2019-01-13T03:23:06.742Z,7.80
2019-01-13T03:24:06.733Z,7.77
2019-01-13T03:25:06.727Z,7.70
2019-01-13T03:26:06.725Z,7.77
2019-01-13T03:27:06.695Z,7.77
2019-01-13T03:28:06.695Z,7.72
2019-01-13T03:29:06.685Z,7.75
2019-01-13T03:30:06.661Z,7.73
2019-01-13T03:31:11.815Z,7.70
2019-01-13T03:32:07.653Z,7.70
2019-01-13T03:33:06.635Z,7.67
2019-01-13T03:34:06.625Z,7.70
2019-01-13T03:35:06.602Z,7.61
2019-01-13T03:36:06.602Z,7.67
2019-01-13T03:37:06.617Z,7.70
2019-01-13T03:38:06.577Z,7.67
2019-01-13T03:39:06.567Z,7.67
2019-01-13T03:40:06.556Z,7.69
2019-01-13T03:41:07.308Z,7.70
2019-01-13T03:42:06.549Z,7.69
2019-01-13T03:43:06.525Z,7.66
2019-01-13T03:44:06.529Z,7.82
2019-01-13T03:45:06.502Z,7.67
2019-01-13T03:46:06.490Z,7.67
2019-01-13T03:47:06.480Z,7.66
2019-01-13T03:48:06.483Z,7.69
2019-01-13T03:49:06.471Z,7.67
2019-01-13T03:50:06.448Z,7.79
2019-01-13T03:51:06.438Z,7.79
2019-01-13T03:52:06.432Z,7.73
2019-01-13T03:53:06.416Z,7.82
2019-01-13T03:54:06.408Z,7.73
2019-01-13T03:55:06.413Z,7.76
2019-01-13T03:56:07.314Z,7.75
2019-01-13T03:57:07.311Z,7.79
2019-01-13T03:58:06.363Z,7.72
2019-01-13T03:59:06.353Z,7.80
2019-01-13T04:00:06.336Z,7.83
2019-01-13T04:01:06.344Z,7.77
2019-01-13T04:02:07.325Z,7.79
2019-01-13T04:03:06.305Z,7.77
2019-01-13T04:04:06.297Z,7.77
2019-01-13T04:05:06.327Z,7.67
2019-01-13T04:06:06.269Z,7.70
2019-01-13T04:07:06.282Z,7.72
2019-01-13T04:08:06.251Z,7.76
2019-01-13T04:09:06.243Z,7.77
2019-01-13T04:10:06.235Z,7.79
2019-01-13T04:11:06.227Z,7.73
2019-01-13T04:12:06.219Z,7.82
2019-01-13T04:13:06.214Z,7.70
2019-01-13T04:14:06.185Z,7.67
2019-01-13T04:15:06.177Z,7.73
2019-01-13T04:16:06.806Z,7.67
2019-01-13T04:17:06.151Z,7.69
2019-01-13T04:18:06.166Z,7.70
2019-01-13T04:19:06.138Z,7.67
2019-01-13T04:20:06.118Z,7.66
2019-01-13T04:21:06.120Z,7.70
2019-01-13T04:22:06.098Z,7.69
2019-01-13T04:23:06.117Z,7.73
2019-01-13T04:24:06.078Z,7.66
2019-01-13T04:25:06.084Z,7.63
2019-01-13T04:26:06.065Z,7.69
2019-01-13T04:27:06.038Z,7.73
2019-01-13T04:28:06.049Z,7.69
2019-01-13T04:29:06.027Z,7.69
2019-01-13T04:30:06.018Z,7.69
2019-01-13T04:31:06.018Z,7.69
2019-01-13T04:32:06.014Z,7.70
2019-01-13T04:33:05.979Z,7.69
2019-01-13T04:34:05.992Z,7.70
2019-01-13T04:35:05.976Z,7.73
2019-01-13T04:36:05.948Z,7.69
2019-01-13T04:37:05.942Z,7.69
2019-01-13T04:38:05.924Z,7.70
2019-01-13T04:39:05.935Z,7.70
2019-01-13T04:40:05.906Z,7.66
2019-01-13T04:41:05.894Z,7.76
2019-01-13T04:42:05.887Z,7.67
2019-01-13T04:43:05.884Z,7.67
2019-01-13T04:44:05.858Z,7.70
2019-01-13T04:45:06.330Z,7.75
2019-01-13T04:46:06.852Z,7.73
2019-01-13T04:47:05.825Z,7.79
2019-01-13T04:48:05.819Z,7.79
2019-01-13T04:49:05.810Z,7.77
2019-01-13T04:50:05.796Z,7.77
2019-01-13T04:51:05.796Z,7.77
2019-01-13T04:52:05.769Z,7.79
2019-01-13T04:53:05.766Z,7.76
2019-01-13T04:54:05.767Z,7.77
2019-01-13T04:55:05.794Z,7.79
2019-01-13T04:56:05.735Z,7.79
2019-01-13T04:57:05.744Z,7.67
2019-01-13T04:58:05.712Z,7.66
2019-01-13T04:59:05.714Z,7.61
2019-01-13T05:00:05.693Z,7.66
2019-01-13T05:01:05.690Z,7.66
2019-01-13T05:02:05.665Z,7.67
2019-01-13T05:03:05.677Z,7.69
2019-01-13T05:04:05.648Z,7.60
2019-01-13T05:05:05.649Z,7.70
2019-01-13T05:06:05.627Z,7.69
2019-01-13T05:07:05.619Z,7.69
2019-01-13T05:08:06.322Z,7.77
2019-01-13T05:09:05.591Z,7.77
2019-01-13T05:10:05.597Z,7.79
2019-01-13T05:11:05.570Z,7.79
2019-01-13T05:12:05.571Z,7.73
2019-01-13T05:13:05.553Z,7.76
2019-01-13T05:14:05.552Z,7.75
2019-01-13T05:15:05.524Z,7.77
2019-01-13T05:16:05.519Z,7.80
2019-01-13T05:17:05.506Z,7.82
2019-01-13T05:18:05.500Z,7.82
2019-01-13T05:19:05.476Z,7.85
2019-01-13T05:20:05.488Z,7.87
2019-01-13T05:21:05.459Z,7.87
2019-01-13T05:22:05.441Z,7.79
2019-01-13T05:23:05.444Z,7.85
2019-01-13T05:24:05.429Z,7.85
2019-01-13T05:25:05.432Z,7.88
2019-01-13T05:26:05.415Z,7.88
2019-01-13T05:27:05.398Z,7.83
2019-01-13T05:28:05.377Z,7.73
2019-01-13T05:29:05.382Z,7.83
2019-01-13T05:30:05.367Z,7.82
2019-01-13T05:31:05.361Z,7.83
2019-01-13T05:32:05.341Z,7.85
2019-01-13T05:33:05.333Z,7.75
2019-01-13T05:34:05.323Z,7.83
2019-01-13T05:35:05.311Z,7.82
2019-01-13T05:36:05.315Z,7.73
2019-01-13T05:37:05.299Z,7.83
2019-01-13T05:38:05.821Z,7.83
2019-01-13T05:39:05.266Z,7.83
2019-01-13T05:40:05.255Z,7.90
2019-01-13T05:41:05.246Z,7.85
2019-01-13T05:42:05.231Z,7.82
2019-01-13T05:43:05.238Z,7.82
2019-01-13T05:44:05.232Z,7.83
2019-01-13T05:45:05.201Z,7.80
2019-01-13T05:46:05.188Z,7.75
2019-01-13T05:47:05.190Z,7.77
2019-01-13T05:48:05.165Z,7.77
2019-01-13T05:49:05.176Z,7.82
2019-01-13T05:50:05.154Z,7.77
2019-01-13T05:51:05.148Z,7.70
2019-01-13T05:52:05.138Z,7.76
2019-01-13T05:53:05.113Z,7.72
2019-01-13T05:54:05.115Z,7.76
2019-01-13T05:55:05.099Z,7.75
2019-01-13T05:56:05.098Z,7.76
2019-01-13T05:57:05.070Z,7.76
2019-01-13T05:58:05.056Z,7.75
2019-01-13T05:59:05.057Z,7.80
2019-01-13T06:00:05.076Z,7.75
2019-01-13T06:01:05.046Z,7.79
2019-01-13T06:02:05.017Z,7.66
2019-01-13T06:03:05.018Z,7.67
2019-01-13T06:04:05.009Z,7.69
2019-01-13T06:05:04.991Z,7.77
2019-01-13T06:06:04.993Z,7.70
2019-01-13T06:07:05.084Z,7.77
2019-01-13T06:08:04.977Z,7.72
2019-01-13T06:09:05.825Z,7.79
2019-01-13T06:10:04.931Z,7.70
2019-01-13T06:11:04.922Z,7.76
2019-01-13T06:12:04.929Z,7.70
2019-01-13T06:13:04.913Z,7.75
2019-01-13T06:14:04.889Z,7.77
2019-01-13T06:15:04.870Z,7.72
2019-01-13T06:16:04.889Z,7.79
2019-01-13T06:17:04.865Z,7.75
2019-01-13T06:18:04.877Z,7.75
2019-01-13T06:19:04.835Z,7.80
2019-01-13T06:20:04.825Z,7.76
2019-01-13T06:21:04.809Z,7.80
2019-01-13T06:22:04.801Z,7.72
2019-01-13T06:23:04.785Z,7.75
2019-01-13T06:24:04.797Z,7.77
2019-01-13T06:25:04.778Z,7.79
2019-01-13T06:26:04.762Z,7.77
2019-01-13T06:27:04.744Z,7.77
2019-01-13T06:28:04.742Z,7.70
2019-01-13T06:29:04.726Z,7.73
2019-01-13T06:30:04.757Z,7.76
2019-01-13T06:31:04.704Z,7.72
2019-01-13T06:32:04.682Z,7.77
2019-01-13T06:33:04.678Z,7.77
2019-01-13T06:34:04.673Z,7.73
2019-01-13T06:35:12.539Z,7.75
2019-01-13T06:36:12.010Z,7.67
2019-01-13T06:37:12.515Z,7.75
2019-01-13T06:38:06.172Z,7.72
2019-01-13T06:39:13.430Z,7.75
2019-01-13T06:40:11.921Z,7.72
2019-01-13T06:41:05.591Z,7.75
2019-01-13T06:42:05.580Z,7.77
2019-01-13T06:43:04.588Z,7.72
2019-01-13T06:44:04.558Z,7.82
2019-01-13T06:45:04.552Z,7.75
2019-01-13T06:46:04.538Z,7.76
2019-01-13T06:47:04.532Z,7.88
2019-01-13T06:48:04.526Z,7.73
2019-01-13T06:49:06.060Z,7.72
2019-01-13T06:50:04.498Z,7.87
2019-01-13T06:51:04.482Z,7.82
2019-01-13T06:52:04.473Z,7.85
2019-01-13T06:53:04.483Z,7.88
2019-01-13T06:54:04.461Z,7.82
2019-01-13T06:55:04.444Z,7.88
2019-01-13T06:56:04.423Z,7.87
2019-01-13T06:57:04.441Z,7.80
2019-01-13T06:58:04.410Z,7.87
2019-01-13T06:59:04.422Z,7.85
2019-01-13T07:00:04.396Z,7.88
2019-01-13T07:01:04.377Z,7.88
2019-01-13T07:02:04.371Z,7.91
2019-01-13T07:03:04.366Z,7.94
2019-01-13T07:04:04.369Z,7.90
2019-01-13T07:05:04.335Z,7.90
2019-01-13T07:06:05.021Z,7.88
2019-01-13T07:07:04.312Z,7.93
2019-01-13T07:08:04.397Z,7.91
2019-01-13T07:09:04.284Z,7.88
2019-01-13T07:10:04.277Z,7.83
2019-01-13T07:11:04.262Z,7.93
2019-01-13T07:12:04.258Z,7.93
2019-01-13T07:13:04.252Z,7.91
2019-01-13T07:14:04.254Z,7.93
2019-01-13T07:15:06.036Z,7.91
2019-01-13T07:16:04.224Z,7.83
2019-01-13T07:17:04.221Z,7.87
2019-01-13T07:18:04.190Z,7.87
2019-01-13T07:19:04.200Z,7.97
2019-01-13T07:20:04.170Z,7.90
2019-01-13T07:21:04.170Z,7.91
2019-01-13T07:22:04.152Z,7.93
2019-01-13T07:23:04.561Z,7.94
2019-01-13T07:24:04.146Z,8.00
2019-01-13T07:25:04.110Z,7.93
2019-01-13T07:26:04.148Z,7.93
2019-01-13T07:27:04.095Z,7.91
2019-01-13T07:28:04.106Z,7.91
2019-01-13T07:29:05.032Z,7.94
2019-01-13T07:30:04.058Z,7.88
2019-01-13T07:31:05.543Z,8.01
2019-01-13T07:32:10.636Z,7.93
2019-01-13T07:33:06.027Z,7.90
2019-01-13T07:34:04.017Z,7.88
2019-01-13T07:35:04.002Z,7.97
2019-01-13T07:36:04.041Z,7.93
2019-01-13T07:37:04.003Z,7.95
2019-01-13T07:38:03.986Z,7.91
2019-01-13T07:39:05.517Z,7.91
2019-01-13T07:40:03.957Z,7.91
2019-01-13T07:41:03.945Z,7.83
2019-01-13T07:42:03.936Z,7.93
2019-01-13T07:43:03.942Z,7.94
2019-01-13T07:44:03.910Z,7.94
2019-01-13T07:45:03.911Z,7.98
2019-01-13T07:46:03.896Z,7.97
2019-01-13T07:47:03.893Z,7.94
2019-01-13T07:48:03.862Z,7.87
2019-01-13T07:49:03.878Z,7.93
2019-01-13T07:50:03.848Z,7.95
2019-01-13T07:51:03.832Z,7.90
2019-01-13T07:52:03.821Z,8.05
2019-01-13T07:53:03.814Z,7.98
2019-01-13T07:54:03.832Z,8.01
2019-01-13T07:55:03.782Z,7.91
2019-01-13T07:56:03.793Z,7.90
2019-01-13T07:57:03.768Z,8.01
2019-01-13T07:58:03.756Z,7.97
2019-01-13T07:59:03.757Z,7.97
2019-01-13T08:00:03.760Z,7.91
2019-01-13T08:01:03.728Z,7.93
2019-01-13T08:02:03.718Z,8.06
2019-01-13T08:03:03.717Z,8.06
2019-01-13T08:04:03.684Z,8.05
2019-01-13T08:05:03.691Z,8.08
2019-01-13T08:06:03.694Z,8.09
2019-01-13T08:07:03.665Z,8.05
2019-01-13T08:08:03.656Z,8.16
2019-01-13T08:09:03.637Z,8.08
2019-01-13T08:10:03.627Z,8.10
2019-01-13T08:11:03.627Z,7.98
2019-01-13T08:12:03.608Z,8.05
2019-01-13T08:13:03.601Z,8.16
2019-01-13T08:14:03.579Z,8.15
2019-01-13T08:15:03.585Z,8.09
2019-01-13T08:16:03.559Z,8.03
2019-01-13T08:17:03.575Z,8.08
2019-01-13T08:18:03.562Z,8.08
2019-01-13T08:19:04.602Z,8.09
2019-01-13T08:20:03.519Z,8.03
2019-01-13T08:21:03.501Z,8.01
2019-01-13T08:22:03.516Z,8.10
2019-01-13T08:23:03.476Z,8.18
2019-01-13T08:24:03.516Z,8.18
2019-01-13T08:25:03.482Z,8.15
2019-01-13T08:26:04.034Z,8.12
2019-01-13T08:27:03.444Z,8.19
2019-01-13T08:28:04.454Z,8.10
2019-01-13T08:29:03.438Z,8.13
2019-01-13T08:30:04.406Z,8.12
2019-01-13T08:31:03.400Z,8.19
2019-01-13T08:32:03.393Z,8.15
2019-01-13T08:33:03.376Z,8.18
2019-01-13T08:34:03.550Z,8.12
2019-01-13T08:35:04.353Z,8.19
2019-01-13T08:36:03.365Z,8.23
2019-01-13T08:37:03.349Z,8.20
2019-01-13T08:38:03.339Z,8.24
2019-01-13T08:39:03.322Z,8.19
2019-01-13T08:40:03.308Z,8.27
2019-01-13T08:41:03.332Z,8.16
2019-01-13T08:42:03.282Z,8.18
2019-01-13T08:43:03.296Z,8.18
2019-01-13T08:44:03.279Z,8.23
2019-01-13T08:45:03.283Z,8.16
2019-01-13T08:46:04.247Z,8.16
2019-01-13T08:47:03.223Z,8.20
2019-01-13T08:48:03.220Z,8.26
2019-01-13T08:49:10.040Z,8.19
2019-01-13T08:50:03.229Z,8.19
2019-01-13T08:51:04.001Z,8.20
2019-01-13T08:52:04.030Z,8.20
2019-01-13T08:53:03.166Z,8.19
2019-01-13T08:54:03.160Z,8.18
2019-01-13T08:55:04.024Z,8.23
2019-01-13T08:56:03.134Z,8.16
2019-01-13T08:57:04.070Z,8.19
2019-01-13T08:58:04.124Z,8.18
2019-01-13T08:59:03.105Z,8.28
2019-01-13T09:00:03.107Z,8.28
2019-01-13T09:01:03.093Z,8.30
2019-01-13T09:02:03.068Z,8.27
2019-01-13T09:03:04.055Z,8.31
2019-01-13T09:04:05.056Z,8.36
2019-01-13T09:05:03.034Z,8.38
2019-01-13T09:06:03.546Z,8.38
2019-01-13T09:07:03.007Z,8.36
2019-01-13T09:08:03.026Z,8.48
2019-01-13T09:09:03.219Z,8.34
2019-01-13T09:10:04.551Z,8.34
2019-01-13T09:11:02.962Z,8.49
2019-01-13T09:12:02.960Z,8.48
2019-01-13T09:13:03.961Z,8.45
2019-01-13T09:14:02.973Z,8.44
2019-01-13T09:15:03.927Z,8.48
2019-01-13T09:16:02.914Z,8.36
2019-01-13T09:17:07.557Z,8.44
2019-01-13T09:18:05.536Z,8.42
2019-01-13T09:19:03.618Z,8.44
2019-01-13T09:20:02.868Z,8.41
2019-01-13T09:21:04.529Z,8.38
2019-01-13T09:22:02.861Z,8.42
2019-01-13T09:23:03.845Z,8.49
2019-01-13T09:24:02.836Z,8.42
2019-01-13T09:25:03.570Z,8.38
2019-01-13T09:26:04.563Z,8.36
2019-01-13T09:27:02.803Z,8.45
2019-01-13T09:28:03.714Z,8.38
2019-01-13T09:29:04.657Z,8.42
2019-01-13T09:30:02.800Z,8.45
2019-01-13T09:31:02.767Z,8.51
2019-01-13T09:32:03.552Z,8.46
2019-01-13T09:33:03.534Z,8.48
2019-01-13T09:34:02.734Z,8.41
2019-01-13T09:35:02.739Z,8.42
2019-01-13T09:36:02.694Z,8.41
2019-01-13T09:37:03.531Z,8.41
2019-01-13T09:38:03.698Z,8.36
2019-01-13T09:39:02.661Z,8.37
2019-01-13T09:40:02.651Z,8.41
2019-01-13T09:41:02.674Z,8.34
2019-01-13T09:42:02.651Z,8.33
2019-01-13T09:43:02.616Z,8.36
2019-01-13T09:44:03.531Z,8.42
2019-01-13T09:45:02.604Z,8.48
2019-01-13T09:46:03.585Z,8.45
2019-01-13T09:47:02.594Z,8.49
2019-01-13T09:48:03.563Z,8.49
2019-01-13T09:49:02.553Z,8.46
2019-01-13T09:50:04.543Z,8.38
2019-01-13T09:51:02.534Z,8.38
2019-01-13T09:52:04.026Z,8.34
2019-01-13T09:53:02.510Z,8.42
2019-01-13T09:54:02.515Z,8.41
2019-01-13T09:55:02.492Z,8.30
2019-01-13T09:56:02.501Z,8.38
2019-01-13T09:57:02.473Z,8.41
2019-01-13T09:58:02.474Z,8.46
2019-01-13T09:59:02.448Z,8.33
2019-01-13T10:00:03.088Z,8.45
2019-01-13T10:01:02.426Z,8.46
2019-01-13T10:02:02.420Z,8.49
2019-01-13T10:03:03.099Z,8.52
2019-01-13T10:04:03.031Z,8.51
2019-01-13T10:05:55.468Z,8.46
2019-01-13T10:06:55.000Z,8.45
2019-01-13T10:07:55.412Z,8.38
2019-01-13T10:08:54.366Z,8.36
2019-01-13T10:09:54.321Z,8.31
2019-01-13T10:10:55.313Z,8.38
2019-01-13T10:11:56.003Z,8.30
2019-01-13T10:12:54.291Z,8.36
2019-01-13T10:13:54.281Z,8.38
2019-01-13T10:14:54.518Z,8.36
2019-01-13T10:15:54.250Z,8.36
2019-01-13T10:16:54.250Z,8.36
2019-01-13T10:17:54.232Z,8.33
2019-01-13T10:18:54.237Z,8.33
2019-01-13T10:19:55.997Z,8.33
2019-01-13T10:20:56.112Z,8.38
2019-01-13T10:21:54.201Z,8.37
2019-01-13T10:22:54.194Z,8.36
2019-01-13T10:23:54.173Z,8.36
2019-01-13T10:24:54.167Z,8.37
2019-01-13T10:25:54.148Z,8.33
2019-01-13T10:26:54.156Z,8.38
2019-01-13T10:27:54.122Z,8.36
2019-01-13T10:28:55.041Z,8.33
2019-01-13T10:29:55.099Z,8.45
2019-01-13T10:30:54.094Z,8.31
2019-01-13T10:31:54.969Z,8.37
2019-01-13T10:32:55.195Z,8.33
2019-01-13T10:33:54.057Z,8.38
2019-01-13T10:34:54.990Z,8.36
2019-01-13T10:35:55.038Z,8.38
2019-01-13T10:36:54.969Z,8.36
2019-01-13T10:37:55.033Z,8.34
2019-01-13T10:38:54.019Z,8.34
2019-01-13T10:39:54.492Z,8.33
2019-01-13T10:40:53.991Z,8.36
2019-01-13T10:41:54.494Z,8.30
2019-01-13T10:42:53.965Z,8.36
2019-01-13T10:43:54.493Z,8.28
2019-01-13T10:44:53.976Z,8.27
2019-01-13T10:45:53.990Z,8.31
2019-01-13T10:46:53.928Z,8.27
2019-01-13T10:47:53.910Z,8.19
2019-01-13T10:48:53.916Z,8.15
2019-01-13T10:49:53.896Z,8.19
2019-01-13T10:50:53.869Z,8.26
2019-01-13T10:51:53.867Z,8.30
2019-01-13T10:52:53.855Z,8.33
2019-01-13T10:53:53.844Z,8.36
2019-01-13T10:54:53.858Z,8.33
2019-01-13T10:55:55.449Z,8.38
2019-01-13T10:56:53.817Z,8.36
2019-01-13T10:57:53.994Z,8.45
2019-01-13T10:58:53.788Z,8.42
2019-01-13T10:59:53.804Z,8.41
2019-01-13T11:00:53.956Z,8.38
2019-01-13T11:01:53.762Z,8.44
2019-01-13T11:02:53.813Z,8.42
2019-01-13T11:03:53.739Z,8.44
2019-01-13T11:04:53.730Z,8.42
2019-01-13T11:05:53.734Z,8.41
2019-01-13T11:06:53.707Z,8.34
2019-01-13T11:07:53.691Z,8.27
2019-01-13T11:08:53.696Z,8.23
2019-01-13T11:09:53.666Z,8.23
2019-01-13T11:10:55.538Z,8.19
2019-01-13T11:11:55.458Z,8.19
2019-01-13T11:12:54.909Z,8.15
2019-01-13T11:13:54.801Z,8.12
2019-01-13T11:14:54.602Z,8.16
2019-01-13T11:15:55.711Z,8.10
2019-01-13T11:16:54.330Z,8.16
2019-01-13T11:17:55.038Z,8.19
2019-01-13T11:18:54.533Z,8.09
2019-01-13T11:19:54.806Z,8.18
2019-01-13T11:20:55.518Z,8.18
2019-01-13T11:21:53.545Z,8.13
2019-01-13T11:22:53.716Z,8.19
2019-01-13T11:23:53.523Z,8.27
2019-01-13T11:24:53.515Z,8.26
2019-01-13T11:25:53.506Z,8.38
2019-01-13T11:26:53.490Z,8.45
2019-01-13T11:27:53.495Z,8.33
2019-01-13T11:28:53.497Z,8.46
2019-01-13T11:29:55.459Z,8.48
2019-01-13T11:30:53.451Z,8.45
2019-01-13T11:31:53.436Z,8.49
2019-01-13T11:32:53.435Z,8.49
2019-01-13T11:33:53.453Z,8.52
2019-01-13T11:34:53.397Z,8.53
2019-01-13T11:35:53.753Z,8.51
2019-01-13T11:36:53.389Z,8.48
2019-01-13T11:37:53.418Z,8.46
2019-01-13T11:38:53.376Z,8.48
2019-01-13T11:39:53.351Z,8.46
2019-01-13T11:40:53.353Z,8.42
2019-01-13T11:41:53.319Z,8.42
2019-01-13T11:42:53.397Z,8.45
2019-01-13T11:43:53.311Z,8.30
2019-01-13T11:44:53.292Z,8.49
2019-01-13T11:45:53.310Z,8.34
2019-01-13T11:46:53.320Z,8.34
2019-01-13T11:47:53.270Z,8.30
2019-01-13T11:48:53.268Z,8.36
2019-01-13T11:49:53.283Z,8.31
2019-01-13T11:50:53.974Z,8.18
2019-01-13T11:51:53.221Z,8.34
2019-01-13T11:52:53.986Z,8.26
2019-01-13T11:53:53.196Z,8.20
2019-01-13T11:54:53.195Z,8.34
2019-01-13T11:55:53.245Z,8.36
2019-01-13T11:56:53.979Z,8.34
2019-01-13T11:57:53.256Z,8.42
2019-01-13T11:58:53.165Z,8.41
2019-01-13T11:59:53.153Z,8.34
2019-01-13T12:00:53.151Z,8.33
2019-01-13T12:01:53.114Z,8.34
2019-01-13T12:02:53.093Z,8.20
2019-01-13T12:03:53.098Z,8.19
2019-01-13T12:04:53.085Z,8.20
2019-01-13T12:05:53.060Z,8.23
2019-01-13T12:06:53.059Z,8.16
2019-01-13T12:07:53.061Z,8.19
2019-01-13T12:08:53.047Z,8.23
2019-01-13T12:09:53.083Z,8.15
2019-01-13T12:10:53.020Z,8.05
2019-01-13T12:11:53.000Z,8.13
2019-01-13T12:12:52.998Z,8.12
2019-01-13T12:13:52.976Z,8.12
2019-01-13T12:14:53.031Z,8.19
2019-01-13T12:15:52.971Z,8.15
2019-01-13T12:16:52.943Z,8.18
2019-01-13T12:17:52.951Z,8.24
2019-01-13T12:18:52.925Z,8.19
2019-01-13T12:19:52.927Z,8.15
2019-01-13T12:20:52.933Z,8.23
2019-01-13T12:21:52.898Z,8.16
2019-01-13T12:22:52.888Z,8.12
2019-01-13T12:23:52.873Z,8.19
2019-01-13T12:24:52.862Z,8.09
2019-01-13T12:25:53.516Z,8.20
2019-01-13T12:26:52.837Z,8.16
2019-01-13T12:27:52.841Z,8.16
2019-01-13T12:28:54.542Z,8.12
2019-01-13T12:29:52.825Z,8.16
2019-01-13T12:30:52.794Z,8.06
2019-01-13T12:31:52.794Z,8.06
2019-01-13T12:32:52.793Z,8.03
2019-01-13T12:33:52.809Z,8.01
2019-01-13T12:34:52.750Z,8.01
2019-01-13T12:35:52.767Z,8.09
2019-01-13T12:36:52.733Z,8.08
2019-01-13T12:37:53.484Z,8.06
2019-01-13T12:38:52.714Z,8.03
2019-01-13T12:39:52.708Z,7.95
2019-01-13T12:40:52.683Z,8.09
2019-01-13T12:41:52.682Z,8.08
2019-01-13T12:42:52.680Z,8.06
2019-01-13T12:43:52.653Z,8.03
2019-01-13T12:44:52.671Z,8.10
2019-01-13T12:45:52.633Z,8.03
2019-01-13T12:46:52.634Z,8.01
2019-01-13T12:47:52.635Z,8.10
2019-01-13T12:48:52.653Z,8.09
2019-01-13T12:49:52.594Z,8.05
2019-01-13T12:50:52.660Z,8.05
2019-01-13T12:51:52.561Z,8.19
2019-01-13T12:52:52.570Z,8.18
2019-01-13T12:53:52.544Z,8.23
2019-01-13T12:54:52.536Z,8.19
2019-01-13T12:55:52.522Z,8.20
2019-01-13T12:56:52.526Z,8.15
2019-01-13T12:57:52.502Z,8.20
2019-01-13T12:58:52.506Z,8.12
2019-01-13T12:59:52.477Z,8.12
2019-01-13T13:00:52.487Z,8.18
2019-01-13T13:01:52.453Z,8.26
2019-01-13T13:02:52.447Z,8.24
2019-01-13T13:03:52.440Z,8.30
2019-01-13T13:04:52.432Z,8.33
2019-01-13T13:05:52.408Z,8.26
2019-01-13T13:06:52.419Z,8.31
2019-01-13T13:07:52.406Z,8.33
2019-01-13T13:08:52.394Z,8.34
2019-01-13T13:09:52.372Z,8.38
2019-01-13T13:10:52.361Z,8.41
2019-01-13T13:11:52.369Z,8.41
2019-01-13T13:12:52.339Z,8.34
2019-01-13T13:13:52.982Z,8.36
2019-01-13T13:14:52.315Z,8.31
2019-01-13T13:15:52.342Z,8.36
2019-01-13T13:16:53.871Z,8.30
2019-01-13T13:17:52.290Z,8.24
2019-01-13T13:18:52.276Z,8.33